createdAt,value
2022-08-05T00:01:36.570Z,18.70
2022-08-05T00:04:17.640Z,18.70
2022-08-05T00:06:47.236Z,18.70
2022-08-05T00:09:19.559Z,18.70
2022-08-05T00:11:55.739Z,18.60
2022-08-05T00:14:29.215Z,18.60
2022-08-05T00:17:02.089Z,18.60
2022-08-05T00:19:33.400Z,18.70
2022-08-05T00:22:11.267Z,18.60
2022-08-05T00:24:42.217Z,18.60
2022-08-05T00:27:16.820Z,18.60
2022-08-05T00:29:45.226Z,18.60
2022-08-05T00:32:15.455Z,18.50
2022-08-05T00:35:05.172Z,18.50
2022-08-05T00:37:50.435Z,18.50
2022-08-05T00:40:28.307Z,18.50
2022-08-05T00:42:58.789Z,18.50
2022-08-05T00:45:38.345Z,18.50
2022-08-05T00:48:09.521Z,18.50
2022-08-05T00:50:41.888Z,18.50
2022-08-05T00:54:00.547Z,18.60
2022-08-05T00:56:02.369Z,18.60
2022-08-05T00:58:30.781Z,18.60
2022-08-05T01:00:59.346Z,18.60
2022-08-05T01:03:30.912Z,18.60
2022-08-05T01:06:03.966Z,18.60
2022-08-05T01:08:42.724Z,18.60
2022-08-05T01:11:21.805Z,18.60
2022-08-05T01:14:01.362Z,18.60
2022-08-05T01:16:39.760Z,18.60
2022-08-05T01:19:46.358Z,18.70
2022-08-05T01:22:28.041Z,18.70
2022-08-05T01:25:13.497Z,18.70
2022-08-05T01:28:08.967Z,18.70
2022-08-05T01:30:41.204Z,18.70
2022-08-05T01:33:26.131Z,18.70
2022-08-05T01:35:57.508Z,18.70
2022-08-05T01:38:30.129Z,18.70
2022-08-05T01:41:01.640Z,18.70
2022-08-05T01:43:34.842Z,18.80
2022-08-05T01:46:07.290Z,18.90
2022-08-05T01:48:49.404Z,18.80
2022-08-05T01:51:19.428Z,18.80
2022-08-05T01:53:57.213Z,18.80
2022-08-05T01:58:12.355Z,18.80
2022-08-05T01:59:23.590Z,18.80
2022-08-05T02:01:55.752Z,18.80
2022-08-05T02:04:29.923Z,18.90
2022-08-05T02:06:59.021Z,18.90
2022-08-05T02:09:28.102Z,19.00
2022-08-05T02:12:02.712Z,19.00
2022-08-05T02:14:38.590Z,19.00
2022-08-05T02:17:17.080Z,19.00
2022-08-05T02:20:05.250Z,19.00
2022-08-05T02:22:39.881Z,19.10
2022-08-05T02:25:18.198Z,19.00
2022-08-05T02:27:59.885Z,19.00
2022-08-05T02:30:36.353Z,19.00
2022-08-05T02:33:06.888Z,19.00
2022-08-05T02:35:38.609Z,19.00
2022-08-05T02:38:20.270Z,19.00
2022-08-05T02:40:56.900Z,19.00
2022-08-05T02:43:27.849Z,18.90
2022-08-05T02:46:01.090Z,18.90
2022-08-05T02:48:31.402Z,18.90
2022-08-05T02:51:01.249Z,18.90
2022-08-05T02:53:35.934Z,18.90
2022-08-05T02:56:15.897Z,19.00
2022-08-05T02:58:51.653Z,19.00
2022-08-05T03:01:27.014Z,19.00
2022-08-05T03:04:02.968Z,19.00
2022-08-05T03:06:55.042Z,19.00
2022-08-05T03:09:37.641Z,19.10
2022-08-05T03:12:08.664Z,19.00
2022-08-05T03:14:39.036Z,19.10
2022-08-05T03:17:15.963Z,19.10
2022-08-05T03:19:45.632Z,19.10
2022-08-05T03:22:16.781Z,19.10
2022-08-05T03:24:50.998Z,19.10
2022-08-05T03:27:21.447Z,19.10
2022-08-05T03:30:07.779Z,19.10
2022-08-05T03:32:40.198Z,19.20
2022-08-05T03:35:09.941Z,19.30
2022-08-05T03:37:45.829Z,19.20
2022-08-05T03:40:24.339Z,19.20
2022-08-05T03:43:01.425Z,19.20
2022-08-05T03:45:57.402Z,19.30
2022-08-05T03:48:29.424Z,19.20
2022-08-05T03:52:35.147Z,19.10
2022-08-05T03:55:07.197Z,19.10
2022-08-05T03:56:47.893Z,19.10
2022-08-05T03:59:22.837Z,19.00
2022-08-05T04:01:59.067Z,19.00
2022-08-05T04:04:30.910Z,19.00
2022-08-05T04:07:00.357Z,19.00
2022-08-05T04:09:31.033Z,18.90
2022-08-05T04:12:05.838Z,18.90
2022-08-05T04:14:53.714Z,18.80
2022-08-05T04:17:26.439Z,18.80
2022-08-05T04:20:20.938Z,18.80
2022-08-05T04:22:51.525Z,18.80
2022-08-05T04:25:20.311Z,18.80
2022-08-05T04:28:11.263Z,18.80
2022-08-05T04:30:41.235Z,18.90
2022-08-05T04:33:11.232Z,18.80
2022-08-05T04:36:09.419Z,18.80
2022-08-05T04:38:39.575Z,18.90
2022-08-05T04:41:09.596Z,18.80
2022-08-05T04:43:40.651Z,18.90
2022-08-05T04:46:28.384Z,18.90
2022-08-05T04:48:58.781Z,19.00
2022-08-05T04:51:30.314Z,19.00
2022-08-05T04:53:58.934Z,19.00
2022-08-05T04:56:34.244Z,19.00
2022-08-05T04:59:21.449Z,18.90
2022-08-05T05:02:07.481Z,18.90
2022-08-05T05:04:44.049Z,18.80
2022-08-05T05:07:18.301Z,18.90
2022-08-05T05:09:53.062Z,18.80
2022-08-05T05:12:22.631Z,18.80
2022-08-05T05:14:55.590Z,18.90
2022-08-05T05:17:55.845Z,18.90
2022-08-05T05:20:13.564Z,19.00
2022-08-05T05:22:44.261Z,19.00
2022-08-05T05:25:16.481Z,19.10
2022-08-05T05:27:53.547Z,19.10
2022-08-05T05:30:29.679Z,19.20
2022-08-05T05:33:08.824Z,19.30
2022-08-05T05:35:45.355Z,19.30
2022-08-05T05:38:19.573Z,19.30
2022-08-05T05:40:55.726Z,19.40
2022-08-05T05:43:54.398Z,19.50
2022-08-05T05:46:17.708Z,19.60
2022-08-05T05:48:49.038Z,19.70
2022-08-05T05:51:21.742Z,19.80
2022-08-05T05:53:57.503Z,19.80
2022-08-05T05:56:33.085Z,19.90
2022-08-05T05:59:05.206Z,20.10
2022-08-05T06:01:37.519Z,20.10
2022-08-05T06:04:11.431Z,20.20
2022-08-05T06:06:41.620Z,20.40
2022-08-05T06:09:16.718Z,20.50
2022-08-05T06:12:02.140Z,20.50
2022-08-05T06:14:31.529Z,20.50
2022-08-05T06:17:01.865Z,20.50
2022-08-05T06:19:35.289Z,20.60
2022-08-05T06:22:06.425Z,20.60
2022-08-05T06:24:42.126Z,20.70
2022-08-05T06:28:08.993Z,20.70
2022-08-05T06:30:17.862Z,20.70
2022-08-05T06:32:50.613Z,20.70
2022-08-05T06:36:03.194Z,20.80
2022-08-05T06:38:10.075Z,20.80
2022-08-05T06:40:44.683Z,20.90
2022-08-05T06:43:59.048Z,21.00
2022-08-05T06:46:06.538Z,21.00
2022-08-05T06:48:55.460Z,21.10
2022-08-05T06:51:29.809Z,21.20
2022-08-05T06:53:59.398Z,21.40
2022-08-05T06:56:29.728Z,21.50
2022-08-05T06:58:58.235Z,21.50
2022-08-05T07:01:32.038Z,21.60
2022-08-05T07:04:03.135Z,21.60
2022-08-05T07:06:32.178Z,21.70
2022-08-05T07:09:04.173Z,21.70
2022-08-05T07:11:37.024Z,21.80
2022-08-05T07:14:29.419Z,21.90
2022-08-05T07:18:00.618Z,21.90
2022-08-05T07:22:41.906Z,22.10
2022-08-05T07:25:53.976Z,22.20
2022-08-05T07:28:05.841Z,22.30
2022-08-05T07:30:39.826Z,22.60
2022-08-05T07:33:16.122Z,23.00
2022-08-05T07:36:02.518Z,23.50
2022-08-05T07:38:43.150Z,23.90
2022-08-05T07:42:07.479Z,24.20
2022-08-05T07:44:14.297Z,24.60
2022-08-05T07:46:49.274Z,24.90
2022-08-05T07:49:19.691Z,25.20
2022-08-05T07:51:53.092Z,25.40
2022-08-05T07:54:31.226Z,25.60
2022-08-05T07:57:41.973Z,26.00
2022-08-05T07:59:53.459Z,25.80
2022-08-05T08:02:30.938Z,26.00
2022-08-05T08:05:15.488Z,26.00
2022-08-05T08:07:59.544Z,26.10
2022-08-05T08:10:30.321Z,26.40
2022-08-05T08:12:58.943Z,26.50
2022-08-05T08:16:35.754Z,26.60
2022-08-05T08:18:20.961Z,26.00
2022-08-05T08:21:01.795Z,25.50
2022-08-05T08:24:02.442Z,25.50
2022-08-05T08:26:27.038Z,25.60
2022-08-05T08:29:02.156Z,25.90
2022-08-05T08:31:48.671Z,25.90
2022-08-05T08:34:18.646Z,25.90
2022-08-05T08:36:52.427Z,26.20
2022-08-05T08:39:24.923Z,26.30
2022-08-05T08:41:59.746Z,26.60
2022-08-05T08:45:20.945Z,26.40
2022-08-05T08:48:06.298Z,26.30
2022-08-05T08:50:31.581Z,26.80
2022-08-05T08:53:11.838Z,27.20
2022-08-05T08:56:04.750Z,27.30
2022-08-05T08:58:37.610Z,27.50
2022-08-05T09:01:15.883Z,28.00
2022-08-05T09:03:47.790Z,27.90
2022-08-05T09:06:21.300Z,28.50
2022-08-05T09:08:52.606Z,28.60
2022-08-05T09:11:51.071Z,28.50
2022-08-05T09:14:57.460Z,28.40
2022-08-05T09:16:58.833Z,28.50
2022-08-05T09:19:36.627Z,28.70
2022-08-05T09:22:30.863Z,29.30
2022-08-05T09:25:00.584Z,29.10
2022-08-05T09:28:04.148Z,28.60
2022-08-05T09:30:23.789Z,28.00
2022-08-05T09:32:53.622Z,27.70
2022-08-05T09:35:27.116Z,27.90
2022-08-05T09:38:16.885Z,27.60
2022-08-05T09:40:52.327Z,27.30
2022-08-05T09:43:40.820Z,27.10
2022-08-05T09:46:27.680Z,27.20
2022-08-05T09:49:08.433Z,27.80
2022-08-05T09:51:48.769Z,28.00
2022-08-05T09:54:28.931Z,27.70
2022-08-05T09:57:01.566Z,27.50
2022-08-05T09:59:35.212Z,27.20
2022-08-05T10:02:06.068Z,27.10
2022-08-05T10:04:41.174Z,26.90
2022-08-05T10:07:20.922Z,26.70
2022-08-05T10:10:14.681Z,26.70
2022-08-05T10:12:50.413Z,27.00
2022-08-05T10:15:22.357Z,27.00
2022-08-05T10:18:09.814Z,26.90
2022-08-05T10:20:41.876Z,26.50
2022-08-05T10:23:34.776Z,26.20
2022-08-05T10:26:07.080Z,25.90
2022-08-05T10:28:36.652Z,25.60
2022-08-05T10:33:01.408Z,25.50
2022-08-05T10:33:54.825Z,25.70
2022-08-05T10:36:26.055Z,26.10
2022-08-05T10:39:05.314Z,26.60
2022-08-05T10:41:48.455Z,26.50
2022-08-05T10:44:21.603Z,26.10
2022-08-05T10:46:54.301Z,25.80
2022-08-05T10:49:26.770Z,25.60
2022-08-05T10:52:00.282Z,25.50
2022-08-05T10:54:57.023Z,25.30
2022-08-05T10:57:32.423Z,25.30
2022-08-05T11:00:19.283Z,25.20
2022-08-05T11:03:25.119Z,25.00
2022-08-05T11:06:15.974Z,24.80
2022-08-05T11:09:16.823Z,24.80
2022-08-05T11:11:53.151Z,24.60
2022-08-05T11:14:49.455Z,24.50
2022-08-05T11:18:00.020Z,24.60
2022-08-05T11:20:45.180Z,24.50
2022-08-05T11:24:04.527Z,24.50
2022-08-05T11:26:32.458Z,24.40
2022-08-05T11:29:13.098Z,24.40
2022-08-05T11:31:58.907Z,24.30
2022-08-05T11:34:39.692Z,24.20
2022-08-05T11:38:30.567Z,24.10
2022-08-05T11:40:03.071Z,24.00
2022-08-05T11:42:38.127Z,23.90
2022-08-05T11:45:23.534Z,23.90
2022-08-05T11:47:59.513Z,23.90
2022-08-05T11:50:28.752Z,23.80
2022-08-05T11:52:58.366Z,23.80
2022-08-05T11:55:31.602Z,23.80
2022-08-05T11:58:10.061Z,23.60
2022-08-05T12:00:44.438Z,23.50
2022-08-05T12:03:29.481Z,23.50
2022-08-05T12:06:06.504Z,23.40
2022-08-05T12:08:49.902Z,23.40
2022-08-05T12:11:21.169Z,23.30
2022-08-05T12:13:58.744Z,23.10
2022-08-05T12:16:38.527Z,23.00
2022-08-05T12:19:08.631Z,22.80
2022-08-05T12:21:43.433Z,22.60
2022-08-05T12:24:17.393Z,22.40
2022-08-05T12:26:48.237Z,22.20
2022-08-05T12:29:22.761Z,22.10
2022-08-05T12:31:54.674Z,21.80
2022-08-05T12:34:28.839Z,21.60
2022-08-05T12:36:59.030Z,21.50
2022-08-05T12:39:34.573Z,21.40
2022-08-05T12:42:10.610Z,21.40
2022-08-05T12:44:44.596Z,21.30
2022-08-05T12:47:17.199Z,21.20
2022-08-05T12:50:04.782Z,21.30
2022-08-05T12:52:41.577Z,21.30
2022-08-05T12:55:26.256Z,21.20
2022-08-05T12:58:51.430Z,21.00
2022-08-05T13:02:03.962Z,20.90
2022-08-05T13:03:42.184Z,20.80
2022-08-05T13:06:18.221Z,20.70
2022-08-05T13:08:51.473Z,20.60
2022-08-05T13:11:25.376Z,20.60
2022-08-05T13:14:36.250Z,20.50
2022-08-05T13:17:10.285Z,20.40
2022-08-05T13:19:52.778Z,20.50
2022-08-05T13:22:29.120Z,20.50
2022-08-05T13:25:05.472Z,20.50
2022-08-05T13:27:38.621Z,20.60
2022-08-05T13:30:33.583Z,20.60
2022-08-05T13:33:01.392Z,20.60
2022-08-05T13:35:46.947Z,20.60
2022-08-05T13:38:30.958Z,20.70
2022-08-05T13:41:02.727Z,20.70
2022-08-05T13:43:44.853Z,20.70
2022-08-05T13:46:43.614Z,20.60
2022-08-05T13:49:10.436Z,20.60
2022-08-05T13:51:46.343Z,20.50
2022-08-05T13:54:16.304Z,20.40
2022-08-05T13:56:50.775Z,20.40
2022-08-05T13:59:23.754Z,20.40
2022-08-05T14:01:57.607Z,20.30
2022-08-05T14:04:49.888Z,20.30
2022-08-05T14:07:55.607Z,20.30
2022-08-05T14:10:11.763Z,20.20
2022-08-05T14:12:42.962Z,20.10
2022-08-05T14:16:08.320Z,20.00
2022-08-05T14:18:15.033Z,20.00
2022-08-05T14:20:48.253Z,20.00
2022-08-05T14:23:23.772Z,20.00
2022-08-05T14:25:54.183Z,20.00
2022-08-05T14:28:26.458Z,20.00
2022-08-05T14:30:56.070Z,20.00
2022-08-05T14:33:24.577Z,20.00
2022-08-05T14:35:54.352Z,20.00
2022-08-05T14:38:32.911Z,20.00
2022-08-05T14:41:06.266Z,20.00
2022-08-05T14:43:59.743Z,20.00
2022-08-05T14:46:28.690Z,20.10
2022-08-05T14:48:58.713Z,20.10
2022-08-05T14:51:30.962Z,20.00
2022-08-05T14:54:28.853Z,20.10
2022-08-05T14:56:50.972Z,20.10
2022-08-05T14:59:22.344Z,20.10
2022-08-05T15:01:51.267Z,20.10
2022-08-05T15:04:23.090Z,20.10
2022-08-05T15:06:55.515Z,20.10
2022-08-05T15:09:52.487Z,20.10
2022-08-05T15:12:16.566Z,20.10
2022-08-05T15:14:56.283Z,20.00
2022-08-05T15:17:47.412Z,20.00
2022-08-05T15:20:17.095Z,20.00
2022-08-05T15:22:54.067Z,20.00
2022-08-05T15:25:41.017Z,20.10
2022-08-05T15:28:16.095Z,20.10
2022-08-05T15:30:46.322Z,20.10
2022-08-05T15:34:04.881Z,20.10
2022-08-05T15:36:05.090Z,20.00
2022-08-05T15:38:41.037Z,20.00
2022-08-05T15:41:22.228Z,20.00
2022-08-05T15:43:54.619Z,20.00
2022-08-05T15:46:25.123Z,19.90
2022-08-05T15:48:58.708Z,19.80
2022-08-05T15:52:10.156Z,19.80
2022-08-05T15:54:19.948Z,19.80
2022-08-05T15:57:07.754Z,19.90
2022-08-05T15:59:38.134Z,20.10
2022-08-05T16:02:09.656Z,20.10
2022-08-05T16:04:48.217Z,20.20
2022-08-05T16:07:17.217Z,20.20
2022-08-05T16:09:46.339Z,20.20
2022-08-05T16:12:16.221Z,20.20
2022-08-05T16:14:45.370Z,20.20
2022-08-05T16:17:15.301Z,20.10
2022-08-05T16:20:05.722Z,20.10
2022-08-05T16:22:33.984Z,20.00
2022-08-05T16:25:05.261Z,19.80
2022-08-05T16:28:00.534Z,19.80
2022-08-05T16:30:28.629Z,19.80
2022-08-05T16:32:58.182Z,19.80
2022-08-05T16:35:28.408Z,19.80
2022-08-05T16:38:03.040Z,19.70
2022-08-05T16:40:51.807Z,19.80
2022-08-05T16:43:26.529Z,19.80
2022-08-05T16:46:04.607Z,19.80
2022-08-05T16:48:41.306Z,19.80
2022-08-05T16:51:11.028Z,19.70
2022-08-05T16:54:06.018Z,19.70
2022-08-05T16:56:30.898Z,19.80
2022-08-05T16:59:07.736Z,19.70
2022-08-05T17:01:53.908Z,19.70
2022-08-05T17:04:26.536Z,19.60
2022-08-05T17:06:56.933Z,19.60
2022-08-05T17:09:28.306Z,19.60
2022-08-05T17:11:59.309Z,19.60
2022-08-05T17:14:36.901Z,19.60
2022-08-05T17:17:14.524Z,19.60
2022-08-05T17:19:46.110Z,19.70
2022-08-05T17:22:24.432Z,19.70
2022-08-05T17:24:57.421Z,19.70
2022-08-05T17:27:34.315Z,19.70
2022-08-05T17:30:12.185Z,19.70
2022-08-05T17:32:47.962Z,19.80
2022-08-05T17:35:20.893Z,19.70
2022-08-05T17:37:50.568Z,19.70
2022-08-05T17:40:22.411Z,19.60
2022-08-05T17:42:53.074Z,19.60
2022-08-05T17:45:25.125Z,19.60
2022-08-05T17:48:08.176Z,19.60
2022-08-05T17:50:36.742Z,19.60
2022-08-05T17:53:08.403Z,19.60
2022-08-05T17:55:39.784Z,19.60
2022-08-05T17:58:12.648Z,19.60
2022-08-05T18:00:47.477Z,19.60
2022-08-05T18:03:59.289Z,19.60
2022-08-05T18:06:11.754Z,19.50
2022-08-05T18:08:45.763Z,19.50
2022-08-05T18:11:23.831Z,19.60
2022-08-05T18:13:59.706Z,19.60
2022-08-05T18:16:29.822Z,19.50
2022-08-05T18:18:58.074Z,19.60
2022-08-05T18:22:07.777Z,19.60
2022-08-05T18:24:15.246Z,19.50
2022-08-05T18:26:43.765Z,19.40
2022-08-05T18:29:12.156Z,19.30
2022-08-05T18:31:46.591Z,19.30
2022-08-05T18:34:17.942Z,19.20
2022-08-05T18:36:50.560Z,19.10
2022-08-05T18:39:41.838Z,19.10
2022-08-05T18:42:11.500Z,19.00
2022-08-05T18:44:51.726Z,19.00
2022-08-05T18:47:27.091Z,19.00
2022-08-05T18:50:13.420Z,19.00
2022-08-05T18:52:51.485Z,18.90
2022-08-05T18:55:20.407Z,18.90
2022-08-05T18:57:54.129Z,18.80
2022-08-05T19:00:31.312Z,18.80
2022-08-05T19:03:04.897Z,18.80
2022-08-05T19:06:12.226Z,18.80
2022-08-05T19:08:30.843Z,18.80
2022-08-05T19:11:04.560Z,18.70
2022-08-05T19:13:35.631Z,18.70
2022-08-05T19:16:05.110Z,18.70
2022-08-05T19:18:56.606Z,18.60
2022-08-05T19:21:27.365Z,18.60
2022-08-05T19:24:05.423Z,18.60
2022-08-05T19:26:43.761Z,18.50
2022-08-05T19:29:23.879Z,18.50
2022-08-05T19:32:04.572Z,18.40
2022-08-05T19:34:34.973Z,18.40
2022-08-05T19:37:03.362Z,18.40
2022-08-05T19:39:32.021Z,18.30
2022-08-05T19:42:16.291Z,18.30
2022-08-05T19:44:46.702Z,18.20
2022-08-05T19:47:16.422Z,18.20
2022-08-05T19:49:48.382Z,18.20
2022-08-05T19:52:31.630Z,18.20
2022-08-05T19:55:08.874Z,18.20
2022-08-05T19:58:06.713Z,18.20
2022-08-05T20:00:38.812Z,18.10
2022-08-05T20:03:09.054Z,18.10
2022-08-05T20:05:49.775Z,18.10
2022-08-05T20:08:19.324Z,18.00
2022-08-05T20:10:49.562Z,18.00
2022-08-05T20:13:30.141Z,18.00
2022-08-05T20:16:07.524Z,18.00
2022-08-05T20:18:36.341Z,18.00
2022-08-05T20:21:07.207Z,17.90
2022-08-05T20:23:39.325Z,17.90
2022-08-05T20:26:19.981Z,17.90
2022-08-05T20:28:50.899Z,17.90
2022-08-05T20:31:21.583Z,17.90
2022-08-05T20:33:52.338Z,17.90
2022-08-05T20:36:24.159Z,17.90
2022-08-05T20:38:57.693Z,17.90
2022-08-05T20:41:43.971Z,18.00
2022-08-05T20:44:19.328Z,17.90
2022-08-05T20:46:59.100Z,17.90
2022-08-05T20:49:28.395Z,17.90
2022-08-05T20:51:58.646Z,17.90
2022-08-05T20:54:55.581Z,17.90
2022-08-05T20:57:24.865Z,17.90
2022-08-05T21:00:20.106Z,17.90
2022-08-05T21:03:01.491Z,17.90
2022-08-05T21:05:47.494Z,17.90
2022-08-05T21:08:20.135Z,17.90
2022-08-05T21:10:49.403Z,17.80
2022-08-05T21:13:26.442Z,17.80
2022-08-05T21:16:06.767Z,17.80
2022-08-05T21:18:35.061Z,17.80
2022-08-05T21:21:04.221Z,17.80
2022-08-05T21:23:37.208Z,17.80
2022-08-05T21:26:14.425Z,17.80
2022-08-05T21:28:47.846Z,17.80
2022-08-05T21:31:19.856Z,17.80
2022-08-05T21:33:49.388Z,17.80
2022-08-05T21:36:19.147Z,17.80
2022-08-05T21:38:58.535Z,17.80
2022-08-05T21:41:33.730Z,17.80
2022-08-05T21:44:04.495Z,17.70
2022-08-05T21:46:34.491Z,17.70
2022-08-05T21:49:04.561Z,17.70
2022-08-05T21:52:21.598Z,17.70
2022-08-05T21:54:30.633Z,17.70
2022-08-05T21:57:28.419Z,17.70
2022-08-05T22:00:03.997Z,17.70
2022-08-05T22:02:35.334Z,17.70
2022-08-05T22:05:04.310Z,17.70
2022-08-05T22:07:39.834Z,17.60
2022-08-05T22:10:27.094Z,17.60
2022-08-05T22:12:57.393Z,17.60
2022-08-05T22:15:56.640Z,17.60
2022-08-05T22:18:14.703Z,17.50
2022-08-05T22:20:44.250Z,17.50
2022-08-05T22:24:00.926Z,17.50
2022-08-05T22:26:39.273Z,17.50
2022-08-05T22:29:09.376Z,17.50
2022-08-05T22:31:44.979Z,17.40
2022-08-05T22:34:25.536Z,17.40
2022-08-05T22:36:58.480Z,17.40
2022-08-05T22:39:32.954Z,17.40
2022-08-05T22:42:11.798Z,17.30
2022-08-05T22:44:42.670Z,17.30
2022-08-05T22:47:29.060Z,17.20
2022-08-05T22:50:20.594Z,17.10
2022-08-05T22:52:47.547Z,16.90
2022-08-05T22:55:18.323Z,16.80
2022-08-05T22:57:49.446Z,16.70
2022-08-05T23:00:20.715Z,16.50
2022-08-05T23:02:50.549Z,16.40
2022-08-05T23:05:22.260Z,16.30
2022-08-05T23:07:51.296Z,16.10
2022-08-05T23:10:20.660Z,16.00
2022-08-05T23:12:54.544Z,15.90
2022-08-05T23:15:27.118Z,15.70
2022-08-05T23:18:01.671Z,15.70
2022-08-05T23:20:32.044Z,15.60
2022-08-05T23:23:00.802Z,15.50
2022-08-05T23:25:51.329Z,15.50
2022-08-05T23:28:28.617Z,15.40
2022-08-05T23:31:16.062Z,15.30
2022-08-05T23:34:04.059Z,15.30
2022-08-05T23:36:40.078Z,15.30
2022-08-05T23:39:17.314Z,15.20
2022-08-05T23:41:52.624Z,15.10
2022-08-05T23:44:31.172Z,15.10
2022-08-05T23:47:02.485Z,15.00
2022-08-05T23:49:43.276Z,15.00
2022-08-05T23:52:30.565Z,14.90
2022-08-05T23:55:02.233Z,14.90
2022-08-05T23:57:34.146Z,14.80
